Hansa Marburg — LXHM — position and weather

sailwx.info

Track history (hours):
 
Tides and Currents Weather Stations Pressure Air Temp Water Temp Dewpoint Dewpoint Depression Visibility Wind Speed Wind Dir Waves Ship Positions

Hansa Marburg

Last reported at 2017-Oct-17 16:52 UTC. Time now 2017-Oct-17 17:16 UTC.
Position N 36°08' W 005°25'.

Length 175 m; draft 9.4 m.

Type: Cargo ship. MMSI: 253161000.

Date/timePositionNaut miles runAvg speedWind from/ knotsBaromVisibWave heightAir tempDewpointWater temp
2017-Oct-17 16:52N 36°08' W 005°25'0 0.0
2017-Oct-17 15:16N 36°08' W 005°25'0 0.0
2017-Oct-17 14:58N 36°08' W 005°25'0 0.0
2017-Oct-17 14:24N 36°08' W 005°25'1 3.2
2017-Oct-17 13:59N 36°08' W 005°24'3 7.2
2017-Oct-17 13:31N 36°05' W 005°22'4 7.5
2017-Oct-17 13:01N 36°03' W 005°18'0 0.7
2017-Oct-17 12:31N 36°03' W 005°19'0 0.1
2017-Oct-17 12:00N 36°03' W 005°19'1 1.3
2017-Oct-17 11:31N 36°03' W 005°19'612.3
2017-Oct-17 11:01N 36°03' W 005°12'  
2017-Oct-15 04:38N 36°42' W 000°05'310.0
2017-Oct-15 04:21N 36°43' W 000°02'410.0
2017-Oct-15 04:00N 36°45' E 000°02'510.1
2017-Oct-15 03:30N 36°46' E 000°08'510.1
2017-Oct-15 03:00N 36°48' E 000°14'610.1
2017-Oct-15 02:26N 36°50' E 000°21'7 9.9
2017-Oct-15 01:42N 36°53' E 000°29'3 9.9
2017-Oct-15 01:25N 36°54' E 000°32'4 9.9
2017-Oct-15 01:00N 36°56' E 000°37'510.0
2017-Oct-15 00:30N 36°57' E 000°43'510.1
2017-Oct-14 23:58N 36°59' E 000°49'510.2
2017-Oct-14 23:30N 37°01' E 000°55'510.2
2017-Oct-14 23:00N 37°03' E 001°01'510.3
2017-Oct-14 22:30N 37°05' E 001°07'1010.3
2017-Oct-14 21:32N 37°08' E 001°19'010.1
2017-Oct-14 21:30N 37°08' E 001°19'510.1
2017-Oct-14 21:00N 37°10' E 001°25'510.1
2017-Oct-14 20:30N 37°12' E 001°31'510.1
2017-Oct-14 20:00N 37°14' E 001°37'510.2
2017-Oct-14 19:30N 37°16' E 001°43'510.3
2017-Oct-14 18:58N 37°18' E 001°49'510.2
2017-Oct-14 18:30N 37°20' E 001°55'610.2
2017-Oct-14 17:57N 37°22' E 002°01'610.2
2017-Oct-14 17:21N 37°24' E 002°08'410.1
2017-Oct-14 17:00N 37°25' E 002°12'1110.2
2017-Oct-14 15:58N 37°29' E 002°25'510.1
2017-Oct-14 15:29N 37°31' E 002°31'610.2
2017-Oct-14 14:54N 37°33' E 002°38'75 9.5
2017-Oct-14 07:01N 37°31' E 004°12'0 9.0
2017-Oct-14 07:00N 37°31' E 004°12'1010.0
2017-Oct-14 06:00N 37°24' E 004°21'710.1
2017-Oct-14 05:16N 37°20' E 004°28'1210.6
2017-Oct-14 04:07N 37°11' E 004°40'28 9.8
2017-Oct-14 01:14N 36°51' E 005°04'3 9.3
2017-Oct-14 00:56N 36°49' E 005°07'  
2017-Oct-10 13:59N 36°00' E 013°53'715.1
2017-Oct-10 13:30N 35°56' E 014°01'815.0
2017-Oct-10 13:00N 35°52' E 014°08'815.2
2017-Oct-10 12:30N 35°48' E 014°16'815.1
2017-Oct-10 12:00N 35°44' E 014°24'9 9.0
2017-Oct-10 11:00N 35°49' E 014°33'0 0.0
2017-Oct-09 02:49N 35°49' E 014°32'0 1.3
2017-Oct-09 02:29N 35°49' E 014°32'3 5.5
2017-Oct-09 02:00N 35°48' E 014°35'1 2.8
2017-Oct-09 01:30N 35°47' E 014°36'4 5.2
2017-Oct-09 00:39N 35°44' E 014°41'0 2.6
2017-Oct-09 00:30N 35°44' E 014°41'1 0.9
2017-Oct-08 23:37N 35°45' E 014°40'0 1.0
2017-Oct-08 23:30N 35°45' E 014°40'1 0.9
2017-Oct-08 22:56N 35°46' E 014°39'0 0.9
2017-Oct-08 22:28N 35°46' E 014°39'0 0.4
2017-Oct-08 21:59N 35°46' E 014°39'1 0.5
2017-Oct-08 20:41N 35°46' E 014°40'0 0.9
2017-Oct-08 20:30N 35°46' E 014°39'0 0.6
2017-Oct-08 19:59N 35°46' E 014°39'3 7.1
2017-Oct-08 19:29N 35°46' E 014°43'  
Track history (hours):
 
Tides and Currents Weather Stations Pressure Air Temp Water Temp Dewpoint Dewpoint Depression Visibility Wind Speed Wind Dir Waves Ship Positions

Hansa Marburg

Last reported at 2017-Oct-17 16:52 UTC. Time now 2017-Oct-17 17:16 UTC.
Position N 36°08' W 005°25'.

Length 175 m; draft 9.4 m.

Type: Cargo ship. MMSI: 253161000.

Date/timePositionNaut miles runAvg speedWind from/ knotsBaromVisibWave heightAir tempDewpointWater temp
2017-Oct-17 16:52N 36°08' W 005°25'0 0.0
2017-Oct-17 15:16N 36°08' W 005°25'0 0.0
2017-Oct-17 14:58N 36°08' W 005°25'0 0.0
2017-Oct-17 14:24N 36°08' W 005°25'1 3.2
2017-Oct-17 13:59N 36°08' W 005°24'3 7.2
2017-Oct-17 13:31N 36°05' W 005°22'4 7.5
2017-Oct-17 13:01N 36°03' W 005°18'0 0.7
2017-Oct-17 12:31N 36°03' W 005°19'0 0.1
2017-Oct-17 12:00N 36°03' W 005°19'1 1.3
2017-Oct-17 11:31N 36°03' W 005°19'612.3
2017-Oct-17 11:01N 36°03' W 005°12'  
2017-Oct-15 04:38N 36°42' W 000°05'310.0
2017-Oct-15 04:21N 36°43' W 000°02'410.0
2017-Oct-15 04:00N 36°45' E 000°02'510.1
2017-Oct-15 03:30N 36°46' E 000°08'510.1
2017-Oct-15 03:00N 36°48' E 000°14'610.1
2017-Oct-15 02:26N 36°50' E 000°21'7 9.9
2017-Oct-15 01:42N 36°53' E 000°29'3 9.9
2017-Oct-15 01:25N 36°54' E 000°32'4 9.9
2017-Oct-15 01:00N 36°56' E 000°37'510.0
2017-Oct-15 00:30N 36°57' E 000°43'510.1
2017-Oct-14 23:58N 36°59' E 000°49'510.2
2017-Oct-14 23:30N 37°01' E 000°55'510.2
2017-Oct-14 23:00N 37°03' E 001°01'510.3
2017-Oct-14 22:30N 37°05' E 001°07'1010.3
2017-Oct-14 21:32N 37°08' E 001°19'010.1
2017-Oct-14 21:30N 37°08' E 001°19'510.1
2017-Oct-14 21:00N 37°10' E 001°25'510.1
2017-Oct-14 20:30N 37°12' E 001°31'510.1
2017-Oct-14 20:00N 37°14' E 001°37'510.2
2017-Oct-14 19:30N 37°16' E 001°43'510.3
2017-Oct-14 18:58N 37°18' E 001°49'510.2
2017-Oct-14 18:30N 37°20' E 001°55'610.2
2017-Oct-14 17:57N 37°22' E 002°01'610.2
2017-Oct-14 17:21N 37°24' E 002°08'410.1
2017-Oct-14 17:00N 37°25' E 002°12'1110.2
2017-Oct-14 15:58N 37°29' E 002°25'510.1
2017-Oct-14 15:29N 37°31' E 002°31'610.2
2017-Oct-14 14:54N 37°33' E 002°38'75 9.5
2017-Oct-14 07:01N 37°31' E 004°12'0 9.0
2017-Oct-14 07:00N 37°31' E 004°12'1010.0
2017-Oct-14 06:00N 37°24' E 004°21'710.1
2017-Oct-14 05:16N 37°20' E 004°28'1210.6
2017-Oct-14 04:07N 37°11' E 004°40'28 9.8
2017-Oct-14 01:14N 36°51' E 005°04'3 9.3
2017-Oct-14 00:56N 36°49' E 005°07'  
2017-Oct-10 13:59N 36°00' E 013°53'715.1
2017-Oct-10 13:30N 35°56' E 014°01'815.0
2017-Oct-10 13:00N 35°52' E 014°08'815.2
2017-Oct-10 12:30N 35°48' E 014°16'815.1
2017-Oct-10 12:00N 35°44' E 014°24'9 9.0
2017-Oct-10 11:00N 35°49' E 014°33'0 0.0
2017-Oct-09 02:49N 35°49' E 014°32'0 1.3
2017-Oct-09 02:29N 35°49' E 014°32'3 5.5
2017-Oct-09 02:00N 35°48' E 014°35'1 2.8
2017-Oct-09 01:30N 35°47' E 014°36'4 5.2
2017-Oct-09 00:39N 35°44' E 014°41'0 2.6
2017-Oct-09 00:30N 35°44' E 014°41'1 0.9
2017-Oct-08 23:37N 35°45' E 014°40'0 1.0
2017-Oct-08 23:30N 35°45' E 014°40'1 0.9
2017-Oct-08 22:56N 35°46' E 014°39'0 0.9
2017-Oct-08 22:28N 35°46' E 014°39'0 0.4
2017-Oct-08 21:59N 35°46' E 014°39'1 0.5
2017-Oct-08 20:41N 35°46' E 014°40'0 0.9
2017-Oct-08 20:30N 35°46' E 014°39'0 0.6
2017-Oct-08 19:59N 35°46' E 014°39'3 7.1
2017-Oct-08 19:29N 35°46' E 014°43'  

Dump ship's entire track history